Legend Of The Seas — C6SL5 — position and weather

sailwx.info

Track history (hours):
 
Tides and Currents Weather Stations Pressure Air Temp Water Temp Dewpoint Dewpoint Depression Visibility Wind Speed Wind Dir Waves Ship Positions

Legend Of The Seas

Operator: Royal Caribbean Cruises Ltd

Last reported at 2019-Nov-10 18:12 UTC. Time now 2019-Nov-20 09:57 UTC.
Position N 36°01' W 005°21'.
Warning: this ship's position is 9 days out of date.

Type: Passenger vessel. MMSI: 311378000.

Date/timePositionNaut miles runAvg speedWind from/ knotsBaromVisibWave heightAir tempDewpointWater temp
2019-Nov-10 18:12N 36°01' W 005°21'4118.6
2019-Nov-10 15:59N 36°23' W 004°38'275 5.9
2019-Nov-08 17:30N 39°26' W 000°18'1 1.2
2019-Nov-08 16:30N 39°27' W 000°18'0 0.0
2019-Nov-08 11:00N 39°27' W 000°18'0 0.0
2019-Nov-08 09:30N 39°27' W 000°18'0 0.0
2019-Nov-08 09:00N 39°27' W 000°18'0 0.0
2019-Nov-08 08:30N 39°27' W 000°18'0 0.0
2019-Nov-08 07:00N 39°27' W 000°18'16110.3
2019-Nov-07 15:28N 41°22' E 002°11'0 0.0
2019-Nov-07 14:28N 41°22' E 002°11'0 0.0
2019-Nov-07 11:58N 41°22' E 002°11'0 0.0
2019-Nov-07 10:58N 41°22' E 002°11'0 0.0
2019-Nov-07 07:28N 41°22' E 002°11'35 8.8
2019-Nov-07 03:31N 41°31' E 002°55'915.7
2019-Nov-07 02:56N 41°36' E 003°06'15512.5
2019-Nov-06 14:28N 43°07' E 005°56'42 1.4
2019-Nov-05 08:30N 43°13' E 006°54'3112.3
2019-Nov-05 06:00N 43°36' E 007°21'3714.8
2019-Nov-05 03:30N 43°03' E 007°41'4615.2
2019-Nov-05 00:29N 42°20' E 008°06'1215.5
2019-Nov-04 23:45N 42°10' E 008°12'299 6.5
2019-Nov-03 01:30N 38°59' E 003°09'4211.9
2019-Nov-02 22:00N 39°33' E 002°38'0 0.0
2019-Nov-02 21:27N 39°33' E 002°38'0 0.0
2019-Nov-02 20:30N 39°33' E 002°38'0 0.0
2019-Nov-02 19:30N 39°33' E 002°38'0 0.0
2019-Nov-02 19:00N 39°33' E 002°38'0 0.0
2019-Nov-02 18:30N 39°33' E 002°38'0 0.0
2019-Nov-02 18:00N 39°33' E 002°38'0 0.0
2019-Nov-02 17:30N 39°33' E 002°38'0 0.0
2019-Nov-02 10:00N 39°33' E 002°38'0 0.0
2019-Nov-02 09:00N 39°33' E 002°38'0 0.0
2019-Nov-02 08:30N 39°33' E 002°38'0 0.0
2019-Nov-02 07:30N 39°33' E 002°38'0 0.0
2019-Nov-02 06:00N 39°33' E 002°38'0 0.0
2019-Nov-02 05:00N 39°33' E 002°38'5210.1
2019-Nov-01 23:50N 40°11' E 001°50'516.0
2019-Nov-01 23:30N 40°16' E 001°47'1116.1
2019-Nov-01 22:50N 40°26' E 001°42'42 2.8
2019-Nov-01 08:00N 41°04' E 001°20'917.8
2019-Nov-01 07:30N 41°03' E 001°31'917.9
2019-Nov-01 07:00N 41°04' E 001°43'918.8
2019-Nov-01 06:30N 41°05' E 001°56'1019.1
2019-Nov-01 06:01N 41°08' E 002°08'918.2
2019-Nov-01 05:31N 41°11' E 002°19'918.6
2019-Nov-01 05:01N 41°13' E 002°31'1020.0
2019-Nov-01 04:30N 41°17' E 002°43'020.3
2019-Nov-01 04:29N 41°17' E 002°44'1019.8
2019-Nov-01 04:00N 41°21' E 002°56'1019.7
2019-Nov-01 03:30N 41°24' E 003°08'17419.6
2019-Oct-31 18:40N 42°55' E 006°27'420.8
2019-Oct-31 18:30N 42°58' E 006°31'  
Track history (hours):
 
Tides and Currents Weather Stations Pressure Air Temp Water Temp Dewpoint Dewpoint Depression Visibility Wind Speed Wind Dir Waves Ship Positions

Legend Of The Seas

Operator: Royal Caribbean Cruises Ltd

Last reported at 2019-Nov-10 18:12 UTC. Time now 2019-Nov-20 09:57 UTC.
Position N 36°01' W 005°21'.
Warning: this ship's position is 9 days out of date.

Type: Passenger vessel. MMSI: 311378000.

Date/timePositionNaut miles runAvg speedWind from/ knotsBaromVisibWave heightAir tempDewpointWater temp
2019-Nov-10 18:12N 36°01' W 005°21'4118.6
2019-Nov-10 15:59N 36°23' W 004°38'275 5.9
2019-Nov-08 17:30N 39°26' W 000°18'1 1.2
2019-Nov-08 16:30N 39°27' W 000°18'0 0.0
2019-Nov-08 11:00N 39°27' W 000°18'0 0.0
2019-Nov-08 09:30N 39°27' W 000°18'0 0.0
2019-Nov-08 09:00N 39°27' W 000°18'0 0.0
2019-Nov-08 08:30N 39°27' W 000°18'0 0.0
2019-Nov-08 07:00N 39°27' W 000°18'16110.3
2019-Nov-07 15:28N 41°22' E 002°11'0 0.0
2019-Nov-07 14:28N 41°22' E 002°11'0 0.0
2019-Nov-07 11:58N 41°22' E 002°11'0 0.0
2019-Nov-07 10:58N 41°22' E 002°11'0 0.0
2019-Nov-07 07:28N 41°22' E 002°11'35 8.8
2019-Nov-07 03:31N 41°31' E 002°55'915.7
2019-Nov-07 02:56N 41°36' E 003°06'15512.5
2019-Nov-06 14:28N 43°07' E 005°56'42 1.4
2019-Nov-05 08:30N 43°13' E 006°54'3112.3
2019-Nov-05 06:00N 43°36' E 007°21'3714.8
2019-Nov-05 03:30N 43°03' E 007°41'4615.2
2019-Nov-05 00:29N 42°20' E 008°06'1215.5
2019-Nov-04 23:45N 42°10' E 008°12'299 6.5
2019-Nov-03 01:30N 38°59' E 003°09'4211.9
2019-Nov-02 22:00N 39°33' E 002°38'0 0.0
2019-Nov-02 21:27N 39°33' E 002°38'0 0.0
2019-Nov-02 20:30N 39°33' E 002°38'0 0.0
2019-Nov-02 19:30N 39°33' E 002°38'0 0.0
2019-Nov-02 19:00N 39°33' E 002°38'0 0.0
2019-Nov-02 18:30N 39°33' E 002°38'0 0.0
2019-Nov-02 18:00N 39°33' E 002°38'0 0.0
2019-Nov-02 17:30N 39°33' E 002°38'0 0.0
2019-Nov-02 10:00N 39°33' E 002°38'0 0.0
2019-Nov-02 09:00N 39°33' E 002°38'0 0.0
2019-Nov-02 08:30N 39°33' E 002°38'0 0.0
2019-Nov-02 07:30N 39°33' E 002°38'0 0.0
2019-Nov-02 06:00N 39°33' E 002°38'0 0.0
2019-Nov-02 05:00N 39°33' E 002°38'5210.1
2019-Nov-01 23:50N 40°11' E 001°50'516.0
2019-Nov-01 23:30N 40°16' E 001°47'1116.1
2019-Nov-01 22:50N 40°26' E 001°42'42 2.8
2019-Nov-01 08:00N 41°04' E 001°20'917.8
2019-Nov-01 07:30N 41°03' E 001°31'917.9
2019-Nov-01 07:00N 41°04' E 001°43'918.8
2019-Nov-01 06:30N 41°05' E 001°56'1019.1
2019-Nov-01 06:01N 41°08' E 002°08'918.2
2019-Nov-01 05:31N 41°11' E 002°19'918.6
2019-Nov-01 05:01N 41°13' E 002°31'1020.0
2019-Nov-01 04:30N 41°17' E 002°43'020.3
2019-Nov-01 04:29N 41°17' E 002°44'1019.8
2019-Nov-01 04:00N 41°21' E 002°56'1019.7
2019-Nov-01 03:30N 41°24' E 003°08'17419.6
2019-Oct-31 18:40N 42°55' E 006°27'420.8
2019-Oct-31 18:30N 42°58' E 006°31'  

Dump ship's entire track history